createdAt,value
2018-01-13T00:02:08.580Z,11.20
2018-01-13T00:04:36.800Z,11.30
2018-01-13T00:07:04.229Z,11.30
2018-01-13T00:09:31.660Z,11.30
2018-01-13T00:11:59.124Z,11.30
2018-01-13T00:14:26.558Z,11.30
2018-01-13T00:16:53.996Z,11.30
2018-01-13T00:19:22.334Z,11.30
2018-01-13T00:21:50.536Z,11.10
2018-01-13T00:24:17.983Z,11.10
2018-01-13T00:26:45.459Z,11.20
2018-01-13T00:29:13.065Z,11.30
2018-01-13T00:31:40.577Z,11.30
2018-01-13T00:34:08.005Z,11.20
2018-01-13T00:36:36.261Z,11.20
2018-01-13T00:39:03.693Z,11.10
2018-01-13T00:41:31.130Z,11.20
2018-01-13T00:43:58.560Z,11.20
2018-01-13T00:46:26.006Z,11.00
2018-01-13T00:48:54.145Z,10.80
2018-01-13T00:51:21.592Z,11.00
2018-01-13T00:53:49.048Z,11.10
2018-01-13T00:56:16.480Z,11.10
2018-01-13T00:58:43.919Z,11.10
2018-01-13T01:01:11.348Z,11.10
2018-01-13T01:03:38.788Z,11.10
2018-01-13T01:06:06.220Z,10.90
2018-01-13T01:08:33.653Z,11.00
2018-01-13T01:11:01.086Z,11.00
2018-01-13T01:13:29.303Z,10.90
2018-01-13T01:15:56.749Z,10.80
2018-01-13T01:18:24.220Z,11.00
2018-01-13T01:20:51.656Z,10.90
2018-01-13T01:23:19.102Z,10.80
2018-01-13T01:25:47.305Z,11.00
2018-01-13T01:28:14.753Z,11.00
2018-01-13T01:30:42.195Z,11.10
2018-01-13T01:33:10.395Z,11.10
2018-01-13T01:35:37.823Z,11.10
2018-01-13T01:38:06.029Z,11.00
2018-01-13T01:40:33.460Z,11.00
2018-01-13T01:43:00.898Z,10.90
2018-01-13T01:45:29.093Z,10.90
2018-01-13T01:47:56.534Z,10.90
2018-01-13T01:50:24.733Z,10.80
2018-01-13T01:52:52.172Z,10.80
2018-01-13T01:55:20.382Z,10.50
2018-01-13T01:57:47.805Z,10.50
2018-01-13T02:00:16.010Z,10.80
2018-01-13T02:02:43.446Z,10.80
2018-01-13T02:05:10.875Z,10.70
2018-01-13T02:07:38.319Z,10.40
2018-01-13T02:10:05.748Z,10.50
2018-01-13T02:12:33.185Z,10.60
2018-01-13T02:15:00.624Z,10.60
2018-01-13T02:17:28.815Z,10.40
2018-01-13T02:19:56.244Z,10.40
2018-01-13T02:22:24.460Z,10.50
2018-01-13T02:24:51.897Z,10.50
2018-01-13T02:27:19.348Z,10.50
2018-01-13T02:29:47.540Z,10.60
2018-01-13T02:32:15.007Z,10.50
2018-01-13T02:34:42.464Z,10.60
2018-01-13T02:37:09.869Z,10.60
2018-01-13T02:39:37.312Z,10.70
2018-01-13T02:42:04.747Z,10.70
2018-01-13T02:44:32.193Z,10.70
2018-01-13T02:46:59.640Z,10.60
2018-01-13T02:49:27.088Z,10.70
2018-01-13T02:51:54.527Z,10.70
2018-01-13T02:54:21.953Z,10.70
2018-01-13T02:56:49.388Z,10.70
2018-01-13T02:59:16.835Z,10.70
2018-01-13T03:01:44.264Z,10.60
2018-01-13T03:04:13.401Z,10.40
2018-01-13T03:06:40.836Z,10.40
2018-01-13T03:09:08.276Z,10.50
2018-01-13T03:11:36.488Z,10.60
2018-01-13T03:14:03.924Z,10.50
2018-01-13T03:16:31.361Z,10.40
2018-01-13T03:18:59.575Z,10.40
2018-01-13T03:21:27.013Z,10.30
2018-01-13T03:23:54.483Z,10.40
2018-01-13T03:26:21.920Z,10.60
2018-01-13T03:28:49.377Z,10.50
2018-01-13T03:31:18.509Z,10.50
2018-01-13T03:33:45.941Z,10.50
2018-01-13T03:36:13.384Z,10.40
2018-01-13T03:38:41.573Z,10.40
2018-01-13T03:41:09.004Z,10.30
2018-01-13T03:43:37.205Z,10.20
2018-01-13T03:46:04.636Z,10.20
2018-01-13T03:48:32.836Z,10.20
2018-01-13T03:51:00.277Z,10.20
2018-01-13T03:53:28.504Z,10.20
2018-01-13T03:55:56.705Z,10.30
2018-01-13T03:58:24.140Z,10.30
2018-01-13T04:00:51.637Z,10.20
2018-01-13T04:03:19.853Z,10.20
2018-01-13T04:05:47.276Z,10.20
2018-01-13T04:08:15.496Z,10.40
2018-01-13T04:10:42.924Z,10.40
2018-01-13T04:13:10.368Z,10.40
2018-01-13T04:15:38.569Z,10.40
2018-01-13T04:18:05.997Z,10.40
2018-01-13T04:20:34.217Z,10.40
2018-01-13T04:23:01.639Z,10.40
2018-01-13T04:25:29.088Z,10.40
2018-01-13T04:27:57.300Z,10.40
2018-01-13T04:30:24.724Z,10.40
2018-01-13T04:32:52.168Z,10.40
2018-01-13T04:35:20.383Z,10.50
2018-01-13T04:37:47.800Z,10.50
2018-01-13T04:40:16.020Z,10.50
2018-01-13T04:42:43.446Z,10.50
2018-01-13T04:45:10.880Z,10.50
2018-01-13T04:47:38.317Z,10.40
2018-01-13T04:50:06.388Z,10.50
2018-01-13T04:52:33.816Z,10.60
2018-01-13T04:55:01.281Z,10.60
2018-01-13T04:57:28.726Z,10.60
2018-01-13T04:59:57.685Z,10.60
2018-01-13T05:02:25.896Z,10.60
2018-01-13T05:04:53.333Z,10.60
2018-01-13T05:07:20.752Z,10.60
2018-01-13T05:09:48.188Z,10.60
2018-01-13T05:12:15.624Z,10.70
2018-01-13T05:14:43.077Z,10.60
2018-01-13T05:17:10.492Z,10.60
2018-01-13T05:19:37.933Z,10.70
2018-01-13T05:22:05.365Z,10.70
2018-01-13T05:24:32.797Z,10.60
2018-01-13T05:27:00.233Z,10.60
2018-01-13T05:29:28.444Z,10.60
2018-01-13T05:31:55.904Z,10.60
2018-01-13T05:34:23.358Z,10.60
2018-01-13T05:36:50.800Z,10.70
2018-01-13T05:39:18.228Z,10.70
2018-01-13T05:41:45.657Z,10.60
2018-01-13T05:44:13.420Z,10.70
2018-01-13T05:46:40.850Z,10.70
2018-01-13T05:49:08.285Z,10.60
2018-01-13T05:51:36.499Z,10.40
2018-01-13T05:54:03.916Z,10.40
2018-01-13T05:56:31.378Z,10.30
2018-01-13T05:58:58.809Z,10.30
2018-01-13T06:01:27.033Z,10.20
2018-01-13T06:03:54.444Z,10.20
2018-01-13T06:06:22.648Z,10.30
2018-01-13T06:08:50.084Z,10.30
2018-01-13T06:11:18.309Z,10.40
2018-01-13T06:13:45.721Z,10.40
2018-01-13T06:16:13.449Z,10.30
2018-01-13T06:18:40.891Z,10.40
2018-01-13T06:21:08.331Z,10.40
2018-01-13T06:23:35.752Z,10.30
2018-01-13T06:26:03.984Z,10.40
2018-01-13T06:28:31.420Z,10.40
2018-01-13T06:30:58.890Z,10.40
2018-01-13T06:33:26.339Z,10.40
2018-01-13T06:35:53.777Z,10.40
2018-01-13T06:38:21.204Z,10.30
2018-01-13T06:40:48.648Z,10.30
2018-01-13T06:43:16.080Z,10.30
2018-01-13T06:45:43.524Z,10.30
2018-01-13T06:48:10.980Z,10.40
2018-01-13T06:50:38.424Z,10.30
2018-01-13T06:53:05.860Z,10.30
2018-01-13T06:55:34.081Z,10.30
2018-01-13T06:58:01.484Z,10.30
2018-01-13T07:00:29.702Z,10.20
2018-01-13T07:02:57.129Z,10.20
2018-01-13T07:05:25.334Z,10.20
2018-01-13T07:07:52.776Z,10.20
2018-01-13T07:10:20.215Z,10.20
2018-01-13T07:12:48.410Z,10.20
2018-01-13T07:15:15.870Z,10.20
2018-01-13T07:17:43.349Z,10.20
2018-01-13T07:20:10.778Z,10.20
2018-01-13T07:22:38.204Z,10.20
2018-01-13T07:25:06.448Z,10.20
2018-01-13T07:27:33.880Z,10.20
2018-01-13T07:30:01.317Z,10.30
2018-01-13T07:32:29.529Z,10.00
2018-01-13T07:34:56.949Z,10.00
2018-01-13T07:37:25.149Z,10.10
2018-01-13T07:39:52.577Z,10.00
2018-01-13T07:42:20.772Z,10.10
2018-01-13T07:44:48.209Z,10.10
2018-01-13T07:47:16.414Z,10.20
2018-01-13T07:49:43.844Z,10.20
2018-01-13T07:52:12.048Z,10.20
2018-01-13T07:54:39.480Z,10.20
2018-01-13T07:57:06.920Z,10.30
2018-01-13T07:59:35.112Z,10.10
2018-01-13T08:02:02.556Z,10.10
2018-01-13T08:04:30.799Z,10.10
2018-01-13T08:06:58.229Z,10.10
2018-01-13T08:09:25.672Z,10.10
2018-01-13T08:11:53.092Z,10.10
2018-01-13T08:14:20.528Z,10.10
2018-01-13T08:16:47.972Z,10.10
2018-01-13T08:19:15.412Z,10.10
2018-01-13T08:21:42.845Z,10.20
2018-01-13T08:24:10.300Z,10.10
2018-01-13T08:26:37.736Z,10.00
2018-01-13T08:29:05.180Z,10.00
2018-01-13T08:31:32.634Z,10.20
2018-01-13T08:34:00.051Z,10.20
2018-01-13T08:36:27.500Z,10.30
2018-01-13T08:38:54.956Z,10.40
2018-01-13T08:41:22.390Z,10.40
2018-01-13T08:43:50.593Z,10.60
2018-01-13T08:46:18.033Z,10.50
2018-01-13T08:48:45.478Z,10.40
2018-01-13T08:51:13.640Z,10.40
2018-01-13T08:53:41.084Z,10.50
2018-01-13T08:56:08.520Z,10.70
2018-01-13T08:58:35.952Z,10.80
2018-01-13T09:01:03.559Z,10.80
2018-01-13T09:03:30.990Z,10.90
2018-01-13T09:05:58.442Z,10.70
2018-01-13T09:08:25.885Z,10.70
2018-01-13T09:10:53.330Z,10.80
2018-01-13T09:13:21.530Z,10.90
2018-01-13T09:15:48.970Z,10.90
2018-01-13T09:18:17.164Z,11.10
2018-01-13T09:20:44.594Z,11.10
2018-01-13T09:23:12.032Z,11.30
2018-01-13T09:25:39.470Z,11.30
2018-01-13T09:28:06.922Z,11.30
2018-01-13T09:30:34.346Z,11.30
2018-01-13T09:33:01.789Z,11.40
2018-01-13T09:35:29.216Z,11.60
2018-01-13T09:37:57.419Z,11.70
2018-01-13T09:40:24.852Z,11.70
2018-01-13T09:42:52.280Z,11.80
2018-01-13T09:45:19.741Z,12.10
2018-01-13T09:47:47.165Z,12.10
2018-01-13T09:50:14.633Z,12.50
2018-01-13T09:52:42.060Z,12.80
2018-01-13T09:55:09.493Z,12.60
2018-01-13T09:57:36.925Z,13.00
2018-01-13T10:00:04.360Z,13.40
2018-01-13T10:02:31.817Z,13.20
2018-01-13T10:04:59.242Z,13.40
2018-01-13T10:07:26.684Z,13.70
2018-01-13T10:09:54.880Z,14.40
2018-01-13T10:12:22.324Z,14.40
2018-01-13T10:14:50.544Z,14.40
2018-01-13T10:17:17.970Z,14.40
2018-01-13T10:19:45.393Z,14.80
2018-01-13T10:22:13.788Z,15.00
2018-01-13T10:24:41.192Z,15.40
2018-01-13T10:27:08.628Z,16.20
2018-01-13T10:29:36.061Z,16.70
2018-01-13T10:32:04.272Z,18.20
2018-01-13T10:34:31.704Z,18.20
2018-01-13T10:36:59.157Z,18.90
2018-01-13T10:39:27.344Z,20.10
2018-01-13T10:41:54.796Z,20.10
2018-01-13T10:44:23.005Z,22.00
2018-01-13T10:46:50.429Z,21.90
2018-01-13T10:49:17.868Z,22.70
2018-01-13T10:51:46.077Z,23.90
2018-01-13T10:54:14.571Z,24.10
2018-01-13T10:56:41.994Z,24.10
2018-01-13T10:59:10.202Z,22.20
2018-01-13T11:01:37.632Z,22.10
2018-01-13T11:04:05.169Z,21.00
2018-01-13T11:06:33.412Z,18.60
2018-01-13T11:09:00.808Z,18.50
2018-01-13T11:11:29.000Z,16.00
2018-01-13T11:13:56.428Z,15.90
2018-01-13T11:16:23.897Z,15.30
2018-01-13T11:18:52.137Z,14.50
2018-01-13T11:21:19.601Z,14.40
2018-01-13T11:23:47.040Z,13.90
2018-01-13T11:26:14.464Z,13.80
2018-01-13T11:28:41.901Z,13.90
2018-01-13T11:31:10.300Z,14.40
2018-01-13T11:33:37.740Z,14.40
2018-01-13T11:36:05.938Z,13.90
2018-01-13T11:38:33.374Z,13.90
2018-01-13T11:41:01.574Z,13.30
2018-01-13T11:43:29.012Z,13.30
2018-01-13T11:45:57.228Z,13.30
2018-01-13T11:48:24.650Z,13.30
2018-01-13T11:50:52.853Z,13.50
2018-01-13T11:53:20.294Z,13.50
2018-01-13T11:55:47.740Z,13.20
2018-01-13T11:58:15.184Z,13.40
2018-01-13T12:00:43.377Z,13.50
2018-01-13T12:03:10.816Z,13.50
2018-01-13T12:05:39.017Z,13.60
2018-01-13T12:08:07.217Z,13.80
2018-01-13T12:10:34.649Z,13.80
2018-01-13T12:13:02.866Z,14.20
2018-01-13T12:15:30.300Z,14.20
2018-01-13T12:17:57.740Z,14.10
2018-01-13T12:20:25.168Z,14.10
2018-01-13T12:22:53.373Z,14.10
2018-01-13T12:25:20.813Z,14.10
2018-01-13T12:27:49.021Z,13.60
2018-01-13T12:30:16.446Z,13.60
2018-01-13T12:32:43.872Z,13.70
2018-01-13T12:35:11.308Z,13.60
2018-01-13T12:37:38.742Z,13.80
2018-01-13T12:40:06.173Z,14.20
2018-01-13T12:42:33.614Z,14.00
2018-01-13T12:45:01.077Z,14.10
2018-01-13T12:47:29.273Z,14.10
2018-01-13T12:49:56.713Z,14.00
2018-01-13T12:52:24.928Z,14.00
2018-01-13T12:54:52.364Z,14.00
2018-01-13T12:57:19.841Z,13.90
2018-01-13T12:59:48.016Z,13.80
2018-01-13T13:02:15.432Z,13.80
2018-01-13T13:04:43.632Z,14.30
2018-01-13T13:07:11.059Z,14.30
2018-01-13T13:09:39.292Z,13.50
2018-01-13T13:12:06.720Z,13.50
2018-01-13T13:14:34.162Z,13.60
2018-01-13T13:17:02.406Z,14.10
2018-01-13T13:19:29.832Z,14.10
2018-01-13T13:21:57.269Z,14.40
2018-01-13T13:24:24.696Z,14.60
2018-01-13T13:26:52.899Z,15.10
2018-01-13T13:29:20.385Z,15.10
2018-01-13T13:31:48.538Z,16.70
2018-01-13T13:34:15.983Z,16.70
2018-01-13T13:36:43.409Z,17.40
2018-01-13T13:39:10.848Z,17.20
2018-01-13T13:41:38.280Z,16.60
2018-01-13T13:44:05.712Z,16.00
2018-01-13T13:46:33.172Z,15.40
2018-01-13T13:49:00.605Z,15.10
2018-01-13T13:51:28.799Z,14.60
2018-01-13T13:53:56.224Z,14.60
2018-01-13T13:56:23.655Z,14.40
2018-01-13T13:58:51.115Z,14.50
2018-01-13T14:01:28.592Z,13.70
2018-01-13T14:03:46.713Z,13.30
2018-01-13T14:06:14.156Z,13.30
2018-01-13T14:08:42.339Z,13.60
2018-01-13T14:11:09.773Z,13.50
2018-01-13T14:13:37.980Z,13.60
2018-01-13T14:16:05.406Z,13.60
2018-01-13T14:18:33.620Z,13.50
2018-01-13T14:21:01.054Z,13.50
2018-01-13T14:23:28.484Z,13.60
2018-01-13T14:25:56.041Z,13.50
2018-01-13T14:28:23.464Z,13.50
2018-01-13T14:30:50.911Z,13.10
2018-01-13T14:33:18.333Z,12.80
2018-01-13T14:35:46.536Z,12.50
2018-01-13T14:38:14.025Z,12.50
2018-01-13T14:40:41.460Z,12.30
2018-01-13T14:43:08.924Z,12.50
2018-01-13T14:45:36.346Z,12.50
2018-01-13T14:48:04.609Z,12.40
2018-01-13T14:50:32.805Z,12.60
2018-01-13T14:53:00.232Z,12.60
2018-01-13T14:55:27.668Z,12.70
2018-01-13T14:57:55.127Z,12.90
2018-01-13T15:00:22.561Z,12.90
2018-01-13T15:02:50.000Z,12.90
2018-01-13T15:05:17.432Z,12.70
2018-01-13T15:07:45.631Z,12.70
2018-01-13T15:10:13.992Z,12.70
2018-01-13T15:12:42.187Z,12.60
2018-01-13T15:15:09.685Z,12.60
2018-01-13T15:17:37.109Z,12.50
2018-01-13T15:20:04.556Z,12.60
2018-01-13T15:22:31.988Z,12.00
2018-01-13T15:25:00.217Z,11.50
2018-01-13T15:27:27.626Z,11.50
2018-01-13T15:29:55.867Z,11.60
2018-01-13T15:32:23.302Z,11.60
2018-01-13T15:34:50.758Z,11.80
2018-01-13T15:37:18.184Z,11.90
2018-01-13T15:39:45.653Z,12.10
2018-01-13T15:42:14.015Z,11.80
2018-01-13T15:44:42.218Z,12.10
2018-01-13T15:47:09.674Z,12.00
2018-01-13T15:49:37.104Z,12.10
2018-01-13T15:52:05.333Z,11.80
2018-01-13T15:54:32.758Z,11.70
2018-01-13T15:57:00.216Z,11.10
2018-01-13T15:59:27.646Z,11.30
2018-01-13T16:01:55.872Z,11.10
2018-01-13T16:04:23.296Z,11.00
2018-01-13T16:06:50.770Z,11.10
2018-01-13T16:09:18.204Z,11.60
2018-01-13T16:11:45.643Z,11.70
2018-01-13T16:14:14.756Z,11.40
2018-01-13T16:16:42.287Z,11.40
2018-01-13T16:19:09.745Z,11.40
2018-01-13T16:21:37.189Z,11.30
2018-01-13T16:24:04.647Z,11.40
2018-01-13T16:26:32.096Z,11.30
2018-01-13T16:28:59.529Z,11.40
2018-01-13T16:31:26.960Z,11.20
2018-01-13T16:33:54.393Z,11.20
2018-01-13T16:36:22.615Z,10.90
2018-01-13T16:38:50.032Z,10.90
2018-01-13T16:41:18.237Z,10.90
2018-01-13T16:43:45.660Z,10.80
2018-01-13T16:46:14.776Z,10.60
2018-01-13T16:48:42.209Z,10.60
2018-01-13T16:51:09.654Z,10.50
2018-01-13T16:53:37.088Z,10.50
2018-01-13T16:56:04.525Z,10.50
2018-01-13T16:58:31.984Z,10.40
2018-01-13T17:00:59.428Z,10.40
2018-01-13T17:03:26.865Z,10.50
2018-01-13T17:05:55.092Z,10.30
2018-01-13T17:08:22.523Z,10.30
2018-01-13T17:10:49.965Z,10.30
2018-01-13T17:13:18.160Z,10.20
2018-01-13T17:15:45.588Z,10.20
2018-01-13T17:18:19.587Z,10.10
2018-01-13T17:20:47.017Z,10.10
2018-01-13T17:23:14.460Z,10.00
2018-01-13T17:25:41.909Z,10.10
2018-01-13T17:28:09.349Z,10.10
2018-01-13T17:30:36.768Z,10.30
2018-01-13T17:33:04.212Z,10.30
2018-01-13T17:35:31.648Z,10.30
2018-01-13T17:37:59.101Z,10.20
2018-01-13T17:40:26.527Z,10.10
2018-01-13T17:42:54.000Z,10.00
2018-01-13T17:45:21.434Z,10.00
2018-01-13T17:47:49.632Z,9.70
2018-01-13T17:50:17.054Z,9.70
2018-01-13T17:52:45.273Z,9.70
2018-01-13T17:55:12.711Z,9.60
2018-01-13T17:57:40.140Z,9.60
2018-01-13T18:00:07.586Z,9.80
2018-01-13T18:02:35.030Z,10.00
2018-01-13T18:05:02.454Z,9.80
2018-01-13T18:07:29.893Z,9.90
2018-01-13T18:09:58.077Z,9.90
2018-01-13T18:12:25.561Z,9.80
2018-01-13T18:14:53.709Z,10.00
2018-01-13T18:17:21.171Z,9.90
2018-01-13T18:19:49.356Z,10.00
2018-01-13T18:22:16.798Z,10.00
2018-01-13T18:24:44.232Z,10.10
2018-01-13T18:27:12.434Z,10.20
2018-01-13T18:29:39.871Z,10.20
2018-01-13T18:32:08.061Z,10.20
2018-01-13T18:34:35.490Z,10.20
2018-01-13T18:37:03.696Z,10.20
2018-01-13T18:39:31.122Z,10.20
2018-01-13T18:41:58.579Z,10.30
2018-01-13T18:44:26.005Z,10.40
2018-01-13T18:46:53.440Z,10.40
2018-01-13T18:49:20.886Z,10.50
2018-01-13T18:51:49.116Z,10.60
2018-01-13T18:54:16.544Z,10.50
2018-01-13T18:56:43.986Z,10.40
2018-01-13T18:59:11.415Z,10.50
2018-01-13T19:01:39.621Z,10.70
2018-01-13T19:04:07.052Z,10.70
2018-01-13T19:06:34.488Z,10.50
2018-01-13T19:09:02.692Z,10.70
2018-01-13T19:11:30.130Z,10.60
2018-01-13T19:13:58.327Z,10.80
2018-01-13T19:16:25.757Z,10.80
2018-01-13T19:18:53.956Z,10.80
2018-01-13T19:21:21.386Z,10.80
2018-01-13T19:23:48.812Z,10.90
2018-01-13T19:26:16.256Z,11.00
2018-01-13T19:28:43.699Z,11.00
2018-01-13T19:31:11.141Z,11.00
2018-01-13T19:33:38.576Z,10.90
2018-01-13T19:36:06.784Z,10.60
2018-01-13T19:38:34.821Z,10.60
2018-01-13T19:41:03.015Z,10.60
2018-01-13T19:43:30.461Z,10.60
2018-01-13T19:45:58.666Z,10.60
2018-01-13T19:48:26.104Z,10.70
2018-01-13T19:50:54.304Z,10.80
2018-01-13T19:53:21.726Z,10.80
2018-01-13T19:55:49.920Z,10.80
2018-01-13T19:58:17.372Z,10.80
2018-01-13T20:00:44.820Z,10.90
2018-01-13T20:03:13.025Z,11.00
2018-01-13T20:05:40.478Z,11.00
2018-01-13T20:08:07.908Z,11.00
2018-01-13T20:10:36.112Z,10.80
2018-01-13T20:13:03.584Z,10.80
2018-01-13T20:15:31.012Z,10.80
2018-01-13T20:17:58.473Z,10.80
2018-01-13T20:20:26.706Z,10.80
2018-01-13T20:22:54.132Z,10.80
2018-01-13T20:25:21.562Z,10.80
2018-01-13T20:27:48.991Z,10.50
2018-01-13T20:30:18.261Z,10.80
2018-01-13T20:32:45.696Z,10.80
2018-01-13T20:35:13.133Z,10.50
2018-01-13T20:37:40.754Z,10.40
2018-01-13T20:40:08.180Z,10.50
2018-01-13T20:42:35.636Z,10.70
2018-01-13T20:45:03.091Z,10.90
2018-01-13T20:47:30.516Z,10.90
2018-01-13T20:49:57.953Z,10.90
2018-01-13T20:52:26.148Z,10.50
2018-01-13T20:54:53.588Z,10.50
2018-01-13T20:57:21.791Z,10.60
2018-01-13T20:59:49.261Z,10.60
2018-01-13T21:02:16.697Z,10.40
2018-01-13T21:04:44.128Z,10.10
2018-01-13T21:07:12.368Z,10.30
2018-01-13T21:09:39.769Z,10.30
2018-01-13T21:12:07.992Z,10.40
2018-01-13T21:14:35.437Z,10.40
2018-01-13T21:17:02.857Z,10.70
2018-01-13T21:19:31.060Z,10.50
2018-01-13T21:21:58.488Z,10.50
2018-01-13T21:24:26.694Z,10.50
2018-01-13T21:26:54.116Z,10.50
2018-01-13T21:29:22.317Z,10.10
2018-01-13T21:31:49.740Z,10.00
2018-01-13T21:34:17.196Z,10.20
2018-01-13T21:36:44.628Z,10.20
2018-01-13T21:39:12.071Z,10.30
2018-01-13T21:41:39.508Z,10.40
2018-01-13T21:44:06.942Z,10.60
2018-01-13T21:46:35.129Z,10.50
2018-01-13T21:49:02.639Z,10.50
2018-01-13T21:51:30.041Z,10.50
2018-01-13T21:53:57.474Z,10.30
2018-01-13T21:56:24.909Z,10.20
2018-01-13T21:58:52.344Z,10.40
2018-01-13T22:01:19.974Z,10.40
2018-01-13T22:03:48.223Z,10.20
2018-01-13T22:06:15.665Z,10.20
2018-01-13T22:08:43.097Z,10.40
2018-01-13T22:11:10.549Z,10.50
2018-01-13T22:13:38.023Z,10.60
2018-01-13T22:16:05.449Z,10.60
2018-01-13T22:18:32.872Z,10.70
2018-01-13T22:21:00.316Z,10.30
2018-01-13T22:23:27.754Z,10.40
2018-01-13T22:25:55.210Z,10.50
2018-01-13T22:28:22.638Z,10.80
2018-01-13T22:30:50.072Z,10.90
2018-01-13T22:33:18.282Z,10.80
2018-01-13T22:35:45.726Z,10.80
2018-01-13T22:38:13.159Z,10.70
2018-01-13T22:40:41.360Z,10.60
2018-01-13T22:43:08.829Z,10.60
2018-01-13T22:45:36.282Z,10.60
2018-01-13T22:48:03.712Z,10.40
2018-01-13T22:50:31.921Z,10.30
2018-01-13T22:52:59.343Z,10.30
2018-01-13T22:55:27.550Z,10.30
2018-01-13T22:57:55.008Z,10.30
2018-01-13T23:00:33.298Z,10.30
2018-01-13T23:03:00.728Z,10.30
2018-01-13T23:05:28.193Z,10.10
2018-01-13T23:07:56.401Z,10.20
2018-01-13T23:10:23.841Z,10.20
2018-01-13T23:12:52.032Z,10.40
2018-01-13T23:15:19.469Z,10.40
2018-01-13T23:17:47.675Z,10.60
2018-01-13T23:20:15.125Z,10.60
2018-01-13T23:22:42.564Z,10.50
2018-01-13T23:25:10.813Z,10.40
2018-01-13T23:27:38.260Z,10.40
2018-01-13T23:30:05.701Z,10.20
2018-01-13T23:32:33.133Z,10.30
2018-01-13T23:35:00.599Z,10.30
2018-01-13T23:37:28.021Z,10.30
2018-01-13T23:39:56.276Z,10.40
2018-01-13T23:42:23.718Z,10.40
2018-01-13T23:44:51.924Z,10.20
2018-01-13T23:47:20.116Z,10.20
2018-01-13T23:49:48.324Z,10.20
2018-01-13T23:52:15.758Z,10.20
2018-01-13T23:54:43.192Z,10.20
2018-01-13T23:57:11.381Z,10.20
2018-01-13T23:59:38.844Z,10.20
